Time;durP1;ratioP1;P1;durP2;ratioP2;P2;SDS_P1;SDS_P2;PMS_P1;PMS_P2;Temp;Humidity;BMP_temperature;BMP_pressure;BME280_temperature;BME280_humidity;BME280_pressure;Samples;Min_cycle;Max_cycle;Signal;HPM_P1;HPM_P2
2022/09/27 00:02:07;;;;;;;1.25;1.00;;;;;;;;;;5085293;28;20533;-41
2022/09/27 00:04:33;;;;;;;1.00;1.00;;;;;;;;;;5084961;28;20415;-41
2022/09/27 00:07:01;;;;;;;1.42;1.00;;;;;;;;;;5085323;28;20039;-41
2022/09/27 00:09:27;;;;;;;1.48;1.00;;;;;;;;;;5085670;28;21144;-41
2022/09/27 00:11:53;;;;;;;1.30;1.20;;;;;;;;;;5084969;28;20020;-41
2022/09/27 00:14:19;;;;;;;1.15;0.90;;;;;;;;;;5085028;28;20020;-41
2022/09/27 00:16:45;;;;;;;2.20;1.20;;;;;;;;;;5085643;28;20020;-41
2022/09/27 00:19:13;;;;;;;1.58;1.10;;;;;;;;;;5085405;28;20508;-41
2022/09/27 00:21:39;;;;;;;1.20;1.10;;;;;;;;;;5084813;28;20077;-41
2022/09/27 00:24:05;;;;;;;1.50;1.00;;;;;;;;;;5085187;28;20016;-41
2022/09/27 00:26:31;;;;;;;1.38;0.90;;;;;;;;;;5084618;28;20028;-41
2022/09/27 00:28:57;;;;;;;1.60;0.77;;;;;;;;;;5084961;28;20523;-41
2022/09/27 00:31:30;;;;;;;1.23;1.00;;;;;;;;;;5085207;28;20028;-41
2022/09/27 00:33:58;;;;;;;0.80;0.80;;;;;;;;;;5085068;28;20117;-41
2022/09/27 00:36:24;;;;;;;1.13;1.00;;;;;;;;;;5084824;28;20035;-41
2022/09/27 00:38:52;;;;;;;1.15;1.00;;;;;;;;;;5084767;28;20035;-40
2022/09/27 00:41:23;;;;;;;1.45;1.00;;;;;;;;;;5084500;28;20032;-41
2022/09/27 00:43:51;;;;;;;1.20;1.00;;;;;;;;;;5084712;28;20553;-41
2022/09/27 00:46:21;;;;;;;1.23;0.80;;;;;;;;;;5084900;28;20089;-41
2022/09/27 00:48:49;;;;;;;2.83;1.25;;;;;;;;;;5085506;28;20028;-41
2022/09/27 00:51:15;;;;;;;0.70;0.70;;;;;;;;;;5085375;28;20103;-41
2022/09/27 00:53:54;;;;;;;1.83;1.00;;;;;;;;;;5084846;28;20407;-41
2022/09/27 00:56:23;;;;;;;0.70;0.70;;;;;;;;;;5084675;28;20430;-41
2022/09/27 00:58:55;;;;;;;1.25;0.60;;;;;;;;;;5084653;28;20107;-41
2022/09/27 01:01:22;;;;;;;1.23;0.73;;;;;;;;;;5084591;28;20024;-41
2022/09/27 01:03:55;;;;;;;0.77;0.77;;;;;;;;;;5084374;28;20039;-41
2022/09/27 01:06:21;;;;;;;1.38;0.68;;;;;;;;;;5084656;28;20059;-41
2022/09/27 01:08:48;;;;;;;0.70;0.68;;;;;;;;;;5084390;28;20433;-41
2022/09/27 01:11:43;;;;;;;1.52;0.60;;;;;;;;;;5085096;28;20016;-41
2022/09/27 01:14:09;;;;;;;0.88;0.75;;;;;;;;;;5064445;28;20036;-42
2022/09/27 01:16:40;;;;;;;2.00;0.90;;;;;;;;;;5084378;28;20510;-42
2022/09/27 01:19:25;;;;;;;0.63;0.63;;;;;;;;;;5084731;28;20586;-41
2022/09/27 01:21:52;;;;;;;1.98;0.90;;;;;;;;;;5084195;28;20259;-41
2022/09/27 01:24:18;;;;;;;1.10;0.60;;;;;;;;;;5084377;28;20024;-41
2022/09/27 01:26:44;;;;;;;0.70;0.60;;;;;;;;;;5084732;28;20025;-41
2022/09/27 01:29:22;;;;;;;0.77;0.63;;;;;;;;;;5084302;28;20028;-42
2022/09/27 01:32:02;;;;;;;0.52;0.52;;;;;;;;;;5084055;28;20103;-41
2022/09/27 01:34:46;;;;;;;0.60;0.60;;;;;;;;;;5084625;28;20032;-41
2022/09/27 01:37:13;;;;;;;0.63;0.60;;;;;;;;;;5085098;28;20108;-41
2022/09/27 01:39:43;;;;;;;0.70;0.70;;;;;;;;;;5084345;28;20032;-41
2022/09/27 01:42:15;;;;;;;0.60;0.57;;;;;;;;;;5084369;28;20024;-41
2022/09/27 01:44:50;;;;;;;0.57;0.57;;;;;;;;;;5084270;28;20028;-41
2022/09/27 01:47:19;;;;;;;1.50;0.80;;;;;;;;;;5084587;28;20020;-41
2022/09/27 01:49:49;;;;;;;1.45;1.00;;;;;;;;;;5085052;28;20028;-41
2022/09/27 01:52:16;;;;;;;2.50;0.90;;;;;;;;;;5085444;28;20020;-41
2022/09/27 01:54:47;;;;;;;1.13;0.82;;;;;;;;;;5088271;28;20446;-42
2022/09/27 01:57:19;;;;;;;0.50;0.50;;;;;;;;;;5088354;28;20020;-41
2022/09/27 01:59:50;;;;;;;2.38;0.73;;;;;;;;;;5088148;28;20020;-41
2022/09/27 02:02:17;;;;;;;1.10;0.63;;;;;;;;;;5087999;28;20031;-41
2022/09/27 02:04:44;;;;;;;1.50;0.70;;;;;;;;;;5088072;28;20137;-41
2022/09/27 02:07:17;;;;;;;1.30;0.80;;;;;;;;;;5087533;28;20020;-41
2022/09/27 02:09:53;;;;;;;1.48;0.82;;;;;;;;;;5087826;28;20580;-41
2022/09/27 02:12:24;;;;;;;0.90;0.55;;;;;;;;;;5087148;28;20023;-41
2022/09/27 02:14:51;;;;;;;0.80;0.70;;;;;;;;;;5087379;28;20058;-41
2022/09/27 02:17:23;;;;;;;1.23;0.63;;;;;;;;;;5087990;28;20510;-41
2022/09/27 02:19:53;;;;;;;1.08;0.80;;;;;;;;;;5087173;28;20111;-41
2022/09/27 02:22:34;;;;;;;1.05;0.60;;;;;;;;;;5085832;28;20024;-41
2022/09/27 02:25:01;;;;;;;0.82;0.52;;;;;;;;;;5087223;28;20056;-41
2022/09/27 02:27:29;;;;;;;1.38;0.90;;;;;;;;;;5087168;28;20036;-42
2022/09/27 02:30:05;;;;;;;1.08;0.70;;;;;;;;;;5086984;28;20066;-41
2022/09/27 02:32:31;;;;;;;1.95;0.90;;;;;;;;;;5086864;28;20020;-41
2022/09/27 02:35:00;;;;;;;0.63;0.50;;;;;;;;;;5087188;28;20822;-41
2022/09/27 02:37:27;;;;;;;0.82;0.50;;;;;;;;;;5087184;28;20110;-41
2022/09/27 02:39:53;;;;;;;1.45;0.50;;;;;;;;;;5086823;28;20036;-41
2022/09/27 02:42:19;;;;;;;1.17;0.75;;;;;;;;;;5086713;28;20034;-41
2022/09/27 02:44:46;;;;;;;2.25;0.50;;;;;;;;;;5087466;28;20498;-41
2022/09/27 02:47:19;;;;;;;0.57;0.50;;;;;;;;;;5086561;28;20028;-42
2022/09/27 02:50:00;;;;;;;0.50;0.50;;;;;;;;;;5087716;28;20032;-41
2022/09/27 02:52:45;;;;;;;0.70;0.50;;;;;;;;;;5086550;28;20280;-42
2022/09/27 02:55:23;;;;;;;1.00;0.50;;;;;;;;;;5086824;28;20050;-42
2022/09/27 02:57:55;;;;;;;1.08;0.60;;;;;;;;;;5086740;28;20016;-41
2022/09/27 03:00:30;;;;;;;1.17;0.57;;;;;;;;;;5087023;28;20035;-41
2022/09/27 03:03:09;;;;;;;0.63;0.47;;;;;;;;;;5086404;28;20449;-41
2022/09/27 03:05:38;;;;;;;1.95;0.77;;;;;;;;;;5086391;28;20030;-41
2022/09/27 03:08:05;;;;;;;1.83;0.65;;;;;;;;;;5086374;28;20032;-41
2022/09/27 03:10:32;;;;;;;0.80;0.70;;;;;;;;;;5084641;28;20020;-41
2022/09/27 03:12:58;;;;;;;1.45;0.73;;;;;;;;;;5086295;28;20043;-41
2022/09/27 03:15:24;;;;;;;0.88;0.50;;;;;;;;;;5086356;28;20021;-41
2022/09/27 03:17:50;;;;;;;2.00;0.70;;;;;;;;;;5086175;28;20027;-41
2022/09/27 03:20:16;;;;;;;1.40;0.60;;;;;;;;;;5086988;28;20030;-41
2022/09/27 03:22:42;;;;;;;1.20;0.50;;;;;;;;;;5086566;28;20047;-41
2022/09/27 03:25:09;;;;;;;1.10;0.60;;;;;;;;;;5086121;28;20020;-41
2022/09/27 03:27:35;;;;;;;2.35;0.50;;;;;;;;;;5085728;28;20042;-42
2022/09/27 03:30:02;;;;;;;0.80;0.45;;;;;;;;;;5086119;28;20395;-41
2022/09/27 03:32:28;;;;;;;1.13;0.60;;;;;;;;;;5085663;28;20028;-41
2022/09/27 03:34:54;;;;;;;1.35;0.57;;;;;;;;;;5085747;28;20021;-41
2022/09/27 03:37:20;;;;;;;0.52;0.50;;;;;;;;;;5085678;28;20487;-41
2022/09/27 03:39:47;;;;;;;3.00;0.65;;;;;;;;;;5086330;28;20027;-41
2022/09/27 03:42:13;;;;;;;0.65;0.50;;;;;;;;;;5086330;28;20039;-41
2022/09/27 03:44:39;;;;;;;1.63;0.70;;;;;;;;;;5085699;28;20032;-41
2022/09/27 03:47:05;;;;;;;1.55;0.60;;;;;;;;;;5085734;28;20028;-41
2022/09/27 03:49:31;;;;;;;1.13;0.70;;;;;;;;;;5085692;28;20437;-41
2022/09/27 03:51:57;;;;;;;1.70;0.57;;;;;;;;;;5085528;28;20311;-41
2022/09/27 03:54:24;;;;;;;1.02;0.63;;;;;;;;;;5085907;28;20403;-41
2022/09/27 03:56:50;;;;;;;0.80;0.70;;;;;;;;;;5085424;28;20315;-41
2022/09/27 03:59:18;;;;;;;3.30;1.15;;;;;;;;;;5086133;28;20395;-41
2022/09/27 04:01:44;;;;;;;0.70;0.50;;;;;;;;;;5085652;28;20120;-42
2022/09/27 04:04:10;;;;;;;1.25;0.60;;;;;;;;;;5085538;28;20024;-42
2022/09/27 04:06:36;;;;;;;0.65;0.60;;;;;;;;;;5084897;28;20032;-41
2022/09/27 04:09:03;;;;;;;2.00;0.60;;;;;;;;;;5085207;28;20031;-41
2022/09/27 04:11:29;;;;;;;1.08;0.45;;;;;;;;;;5085226;28;20558;-41
2022/09/27 04:13:55;;;;;;;1.23;0.50;;;;;;;;;;5085263;28;20017;-41
2022/09/27 04:16:21;;;;;;;1.08;0.70;;;;;;;;;;5084595;28;20149;-41
2022/09/27 04:18:47;;;;;;;2.25;0.60;;;;;;;;;;5085552;28;20024;-42
2022/09/27 04:21:13;;;;;;;2.40;0.43;;;;;;;;;;5085423;28;20051;-41
2022/09/27 04:23:39;;;;;;;1.45;0.60;;;;;;;;;;5084739;28;20028;-41
2022/09/27 04:26:05;;;;;;;0.47;0.47;;;;;;;;;;5085209;28;20031;-41
2022/09/27 04:28:32;;;;;;;0.88;0.50;;;;;;;;;;5084680;28;20039;-41
2022/09/27 04:30:58;;;;;;;0.82;0.57;;;;;;;;;;5085248;28;20043;-41
2022/09/27 04:33:24;;;;;;;0.85;0.50;;;;;;;;;;5085097;28;20036;-41
2022/09/27 04:38:36;;;;;;;1.52;0.85;;;;;;;;;;5084807;28;20636;-41
2022/09/27 04:41:02;;;;;;;0.82;0.50;;;;;;;;;;5085032;28;20435;-41
2022/09/27 04:43:28;;;;;;;1.05;0.47;;;;;;;;;;5084868;28;20115;-41
2022/09/27 04:45:55;;;;;;;1.15;0.47;;;;;;;;;;5085010;28;20509;-41
2022/09/27 04:48:21;;;;;;;1.52;0.68;;;;;;;;;;5084810;28;20056;-41
2022/09/27 04:50:47;;;;;;;1.67;0.63;;;;;;;;;;5085436;28;20113;-41
2022/09/27 04:53:14;;;;;;;1.05;0.50;;;;;;;;;;5085171;28;20436;-41
2022/09/27 04:55:47;;;;;;;1.25;0.68;;;;;;;;;;5083292;28;20027;-41
2022/09/27 04:58:13;;;;;;;0.75;0.45;;;;;;;;;;5085438;28;20028;-41
2022/09/27 05:00:42;;;;;;;1.30;0.50;;;;;;;;;;5084588;28;20077;-41
2022/09/27 05:03:09;;;;;;;1.38;0.60;;;;;;;;;;5085030;28;20020;-41
2022/09/27 05:05:34;;;;;;;1.58;0.70;;;;;;;;;;5084614;28;20032;-41
2022/09/27 05:08:01;;;;;;;0.52;0.40;;;;;;;;;;5084836;28;20556;-41
2022/09/27 05:10:27;;;;;;;1.33;0.60;;;;;;;;;;5084700;28;20051;-42
2022/09/27 05:12:53;;;;;;;1.33;0.75;;;;;;;;;;5084363;28;20020;-41
2022/09/27 05:15:20;;;;;;;1.80;0.70;;;;;;;;;;5084463;28;20024;-41
2022/09/27 05:17:46;;;;;;;1.05;0.70;;;;;;;;;;5084878;28;20024;-41
2022/09/27 05:20:12;;;;;;;2.05;0.73;;;;;;;;;;5084648;28;20117;-41
2022/09/27 05:22:39;;;;;;;0.95;0.60;;;;;;;;;;5084168;28;20078;-41
2022/09/27 05:25:06;;;;;;;2.47;1.05;;;;;;;;;;5084653;28;20039;-41
2022/09/27 05:27:32;;;;;;;0.93;0.50;;;;;;;;;;5084930;28;20511;-41
2022/09/27 05:30:02;;;;;;;0.93;0.50;;;;;;;;;;5087867;28;20058;-41
2022/09/27 05:32:28;;;;;;;1.85;0.60;;;;;;;;;;5088173;28;20047;-41
2022/09/27 05:34:55;;;;;;;0.95;0.63;;;;;;;;;;5082301;28;20056;-41
2022/09/27 05:37:21;;;;;;;1.42;0.55;;;;;;;;;;5082311;28;20027;-41
2022/09/27 05:39:48;;;;;;;0.75;0.65;;;;;;;;;;5089397;28;20115;-41
2022/09/27 05:42:15;;;;;;;0.82;0.50;;;;;;;;;;5069813;28;20029;-41
2022/09/27 05:44:45;;;;;;;0.85;0.60;;;;;;;;;;5086072;28;20028;-41
2022/09/27 05:47:11;;;;;;;0.50;0.43;;;;;;;;;;5089081;28;20489;-41
2022/09/27 05:49:39;;;;;;;0.70;0.45;;;;;;;;;;5089118;28;20540;-41
2022/09/27 05:52:06;;;;;;;0.45;0.30;;;;;;;;;;5088261;28;20403;-41
2022/09/27 05:54:32;;;;;;;0.98;0.70;;;;;;;;;;5068876;28;20025;-41
2022/09/27 05:56:59;;;;;;;0.82;0.50;;;;;;;;;;5085723;28;20594;-41
2022/09/27 05:59:26;;;;;;;0.98;0.73;;;;;;;;;;5089087;28;20031;-41
2022/09/27 06:01:52;;;;;;;1.00;0.40;;;;;;;;;;5069958;28;20032;-41
2022/09/27 06:04:19;;;;;;;1.30;0.80;;;;;;;;;;5069133;28;20028;-41
2022/09/27 06:06:45;;;;;;;0.93;0.47;;;;;;;;;;5084082;28;20058;-41
2022/09/27 06:09:12;;;;;;;2.78;0.60;;;;;;;;;;5088816;28;20031;-41
2022/09/27 06:11:39;;;;;;;2.05;0.65;;;;;;;;;;5083053;28;20032;-41
2022/09/27 06:14:06;;;;;;;1.35;0.70;;;;;;;;;;5068728;28;20542;-41
2022/09/27 06:16:33;;;;;;;1.23;0.68;;;;;;;;;;5068267;28;20063;-41
2022/09/27 06:18:59;;;;;;;1.27;0.65;;;;;;;;;;5067297;28;20074;-41
2022/09/27 06:21:27;;;;;;;1.38;0.52;;;;;;;;;;5067057;28;20534;-41
2022/09/27 06:23:55;;;;;;;0.65;0.55;;;;;;;;;;5067404;28;20021;-41
2022/09/27 06:26:21;;;;;;;1.67;0.47;;;;;;;;;;5087246;28;20312;-41
2022/09/27 06:28:49;;;;;;;1.42;0.68;;;;;;;;;;5087356;28;20020;-41
2022/09/27 06:31:16;;;;;;;0.77;0.60;;;;;;;;;;5083940;28;20076;-41
2022/09/27 06:33:42;;;;;;;2.10;0.75;;;;;;;;;;5082864;28;20022;-41
2022/09/27 06:36:08;;;;;;;1.17;0.63;;;;;;;;;;5087855;28;20024;-41
2022/09/27 06:38:34;;;;;;;0.88;0.60;;;;;;;;;;5079807;28;20641;-41
2022/09/27 06:41:01;;;;;;;2.22;0.77;;;;;;;;;;5079728;28;20028;-41
2022/09/27 06:43:28;;;;;;;1.88;0.80;;;;;;;;;;5079976;28;20030;-41
2022/09/27 06:45:54;;;;;;;0.95;0.63;;;;;;;;;;5068039;28;20020;-41
2022/09/27 06:48:21;;;;;;;2.63;0.80;;;;;;;;;;5085898;28;20031;-41
2022/09/27 06:50:48;;;;;;;0.82;0.50;;;;;;;;;;5087837;28;20039;-41
2022/09/27 06:53:15;;;;;;;1.17;0.65;;;;;;;;;;5086803;28;20580;-41
2022/09/27 06:55:43;;;;;;;2.35;0.80;;;;;;;;;;5087161;28;20101;-41
2022/09/27 07:00:55;;;;;;;1.33;0.60;;;;;;;;;;5087204;28;20125;-41
2022/09/27 07:03:22;;;;;;;1.38;0.60;;;;;;;;;;5085662;28;20415;-41
2022/09/27 07:06:14;;;;;;;1.05;0.50;;;;;;;;;;5085665;28;20103;-41
2022/09/27 07:08:40;;;;;;;0.60;0.50;;;;;;;;;;5084225;28;20044;-41
2022/09/27 07:11:07;;;;;;;2.53;0.70;;;;;;;;;;5087096;28;20495;-41
2022/09/27 07:13:39;;;;;;;1.38;0.75;;;;;;;;;;5085459;28;20101;-41
2022/09/27 07:16:05;;;;;;;1.70;0.60;;;;;;;;;;5071110;28;20157;-42
2022/09/27 07:18:32;;;;;;;0.70;0.50;;;;;;;;;;5081149;28;20016;-41
2022/09/27 07:21:00;;;;;;;1.77;0.65;;;;;;;;;;5075548;28;20035;-41
2022/09/27 07:23:26;;;;;;;1.92;0.63;;;;;;;;;;5068153;28;20028;-41
2022/09/27 07:25:52;;;;;;;0.40;0.40;;;;;;;;;;5077711;28;20121;-41
2022/09/27 07:28:19;;;;;;;1.90;0.70;;;;;;;;;;5066849;28;20036;-41
2022/09/27 07:30:45;;;;;;;1.92;0.60;;;;;;;;;;5075596;28;20035;-41
2022/09/27 07:33:12;;;;;;;1.33;0.63;;;;;;;;;;5085878;28;20020;-41
2022/09/27 07:35:42;;;;;;;2.42;0.60;;;;;;;;;;5074558;28;20131;-41
2022/09/27 07:38:09;;;;;;;1.40;0.50;;;;;;;;;;5067230;28;20031;-41
2022/09/27 07:40:36;;;;;;;1.42;0.63;;;;;;;;;;5066137;28;20035;-41
2022/09/27 07:43:03;;;;;;;0.85;0.50;;;;;;;;;;5064824;28;20042;-41
2022/09/27 07:45:30;;;;;;;1.75;0.55;;;;;;;;;;5065314;28;20032;-41
2022/09/27 07:47:56;;;;;;;0.50;0.50;;;;;;;;;;5065546;28;20024;-41
2022/09/27 07:50:23;;;;;;;0.82;0.43;;;;;;;;;;5064500;28;20029;-41
2022/09/27 07:52:52;;;;;;;1.63;0.70;;;;;;;;;;5066711;28;20345;-41
2022/09/27 07:55:18;;;;;;;1.27;0.45;;;;;;;;;;5085924;28;20032;-41
2022/09/27 07:57:45;;;;;;;1.95;0.80;;;;;;;;;;5082253;28;20044;-41
2022/09/27 08:00:13;;;;;;;1.90;0.73;;;;;;;;;;5065226;28;20423;-41
2022/09/27 08:02:39;;;;;;;1.52;0.73;;;;;;;;;;5063561;28;20511;-41
2022/09/27 08:05:05;;;;;;;0.70;0.40;;;;;;;;;;5065210;28;20106;-41
2022/09/27 08:07:31;;;;;;;1.27;0.40;;;;;;;;;;5064921;28;20032;-41
2022/09/27 08:09:58;;;;;;;1.45;0.60;;;;;;;;;;5065644;28;20521;-41
2022/09/27 08:12:26;;;;;;;1.02;0.60;;;;;;;;;;5064682;28;20017;-41
2022/09/27 08:14:52;;;;;;;0.85;0.38;;;;;;;;;;5064595;28;20596;-41
2022/09/27 08:17:18;;;;;;;0.82;0.57;;;;;;;;;;5065125;28;20024;-42
2022/09/27 08:19:47;;;;;;;1.25;0.70;;;;;;;;;;5064873;28;20103;-41
2022/09/27 08:22:13;;;;;;;1.27;0.43;;;;;;;;;;5065088;28;20089;-41
2022/09/27 08:24:39;;;;;;;1.58;0.50;;;;;;;;;;5064722;28;20094;-41
2022/09/27 08:27:06;;;;;;;1.50;0.50;;;;;;;;;;5064336;28;20392;-41
2022/09/27 08:29:33;;;;;;;1.17;0.63;;;;;;;;;;5064930;28;20021;-42
2022/09/27 08:31:59;;;;;;;1.35;0.70;;;;;;;;;;5065399;28;20025;-41
2022/09/27 08:34:27;;;;;;;2.67;0.50;;;;;;;;;;5064745;28;20028;-41
2022/09/27 08:36:54;;;;;;;1.33;0.55;;;;;;;;;;5064475;28;20104;-41
2022/09/27 08:39:20;;;;;;;1.83;0.40;;;;;;;;;;5064665;28;20471;-41
2022/09/27 08:41:49;;;;;;;2.05;0.60;;;;;;;;;;5064268;28;20385;-41
2022/09/27 08:44:27;;;;;;;2.00;0.70;;;;;;;;;;5064604;28;20078;-41
2022/09/27 08:46:57;;;;;;;1.00;0.60;;;;;;;;;;5064551;28;20032;-41
2022/09/27 08:49:24;;;;;;;1.27;0.60;;;;;;;;;;5064611;28;20025;-41
2022/09/27 08:51:52;;;;;;;1.23;0.65;;;;;;;;;;5064455;28;20593;-41
2022/09/27 08:54:24;;;;;;;1.55;0.75;;;;;;;;;;5064827;28;20059;-41
2022/09/27 08:56:52;;;;;;;0.98;0.52;;;;;;;;;;5063954;28;20530;-41
2022/09/27 08:59:23;;;;;;;2.63;0.50;;;;;;;;;;5064588;28;20028;-41
2022/09/27 09:01:49;;;;;;;1.73;0.60;;;;;;;;;;5065774;28;20036;-41
2022/09/27 09:04:20;;;;;;;0.70;0.50;;;;;;;;;;5068812;28;20028;-41
2022/09/27 09:06:54;;;;;;;1.00;0.50;;;;;;;;;;5068252;28;20039;-41
2022/09/27 09:09:20;;;;;;;1.73;0.70;;;;;;;;;;5068359;28;20145;-41
2022/09/27 09:14:44;;;;;;;0.88;0.60;;;;;;;;;;5074949;28;20032;-42
2022/09/27 09:17:29;;;;;;;1.30;0.80;;;;;;;;;;5077468;28;20024;-41
2022/09/27 09:20:11;;;;;;;3.10;0.70;;;;;;;;;;5076568;28;20023;-41
2022/09/27 09:22:47;;;;;;;0.70;0.50;;;;;;;;;;5085548;28;20175;-41
2022/09/27 09:25:27;;;;;;;1.40;0.60;;;;;;;;;;5085804;28;20031;-41
2022/09/27 09:28:05;;;;;;;0.38;0.38;;;;;;;;;;5088099;28;20051;-42
2022/09/27 09:30:41;;;;;;;1.75;0.55;;;;;;;;;;5085981;28;20036;-41
2022/09/27 09:33:28;;;;;;;1.60;0.60;;;;;;;;;;5087196;28;20032;-41
2022/09/27 09:36:03;;;;;;;0.93;0.30;;;;;;;;;;5087606;28;20024;-41
2022/09/27 09:38:38;;;;;;;0.80;0.50;;;;;;;;;;5089723;28;20418;-41
2022/09/27 09:41:11;;;;;;;0.85;0.50;;;;;;;;;;5087119;28;20514;-41
2022/09/27 09:43:45;;;;;;;0.55;0.43;;;;;;;;;;5084829;28;20394;-41
2022/09/27 09:46:17;;;;;;;0.93;0.40;;;;;;;;;;5088238;28;20020;-41
2022/09/27 09:48:47;;;;;;;1.05;0.60;;;;;;;;;;5086202;28;20487;-42
2022/09/27 09:51:17;;;;;;;0.75;0.57;;;;;;;;;;5086113;28;20031;-43
2022/09/27 09:54:04;;;;;;;2.03;0.70;;;;;;;;;;5086507;28;20107;-41
2022/09/27 09:56:31;;;;;;;1.52;0.57;;;;;;;;;;5084954;28;20409;-42
2022/09/27 09:58:57;;;;;;;2.80;0.90;;;;;;;;;;5089267;28;20127;-41
2022/09/27 10:01:28;;;;;;;1.98;0.65;;;;;;;;;;5086511;28;20093;-41
2022/09/27 10:03:55;;;;;;;2.72;0.60;;;;;;;;;;5089891;28;20034;-41
2022/09/27 10:06:22;;;;;;;1.65;0.65;;;;;;;;;;5088095;28;20549;-41
2022/09/27 10:08:53;;;;;;;1.55;0.50;;;;;;;;;;5088057;28;20161;-41
2022/09/27 10:11:22;;;;;;;1.00;0.40;;;;;;;;;;5088914;28;20020;-41
2022/09/27 10:13:48;;;;;;;2.22;0.60;;;;;;;;;;5087819;28;20467;-41
2022/09/27 10:16:16;;;;;;;1.52;0.60;;;;;;;;;;5088420;28;20035;-41
2022/09/27 10:18:42;;;;;;;2.92;0.60;;;;;;;;;;5087959;28;20383;-41
2022/09/27 10:21:30;;;;;;;1.10;0.93;;;;;;;;;;5088706;28;20020;-41
2022/09/27 10:24:10;;;;;;;1.10;0.50;;;;;;;;;;5086715;28;20526;-41
2022/09/27 10:26:37;;;;;;;0.65;0.40;;;;;;;;;;5088356;28;20651;-41
2022/09/27 10:29:15;;;;;;;1.67;0.50;;;;;;;;;;5088654;28;20032;-40
2022/09/27 10:31:46;;;;;;;1.40;0.50;;;;;;;;;;5088356;28;20169;-41
2022/09/27 10:34:27;;;;;;;1.17;0.60;;;;;;;;;;5076238;28;20093;-41
2022/09/27 10:37:02;;;;;;;0.52;0.30;;;;;;;;;;5068162;28;20024;-41
2022/09/27 10:39:28;;;;;;;1.58;0.50;;;;;;;;;;5067626;28;20024;-41
2022/09/27 10:41:55;;;;;;;1.25;0.55;;;;;;;;;;5083620;28;20107;-41
2022/09/27 10:44:25;;;;;;;0.95;0.45;;;;;;;;;;5088520;28;20502;-41
2022/09/27 10:46:52;;;;;;;0.85;0.40;;;;;;;;;;5084645;28;20573;-41
2022/09/27 10:49:18;;;;;;;0.57;0.35;;;;;;;;;;5069911;28;20024;-41
2022/09/27 10:51:45;;;;;;;0.93;0.40;;;;;;;;;;5067766;28;20028;-41
2022/09/27 10:54:22;;;;;;;0.77;0.40;;;;;;;;;;5083590;28;20031;-41
2022/09/27 10:56:59;;;;;;;1.02;0.50;;;;;;;;;;5087565;28;20030;-41
2022/09/27 10:59:29;;;;;;;0.55;0.40;;;;;;;;;;5087417;28;20043;-41
2022/09/27 11:01:55;;;;;;;2.03;0.50;;;;;;;;;;5085797;28;20047;-41
2022/09/27 11:04:28;;;;;;;1.67;0.60;;;;;;;;;;5086461;28;20519;-41
2022/09/27 11:07:08;;;;;;;3.53;0.80;;;;;;;;;;5086312;28;20024;-41
2022/09/27 11:09:44;;;;;;;1.73;0.60;;;;;;;;;;5086120;28;20034;-41
2022/09/27 11:12:12;;;;;;;4.53;0.70;;;;;;;;;;5085979;28;20054;-41
2022/09/27 11:14:38;;;;;;;3.90;0.70;;;;;;;;;;5086120;28;20028;-41
2022/09/27 11:17:23;;;;;;;1.48;0.80;;;;;;;;;;5086254;28;20099;-41
2022/09/27 11:19:55;;;;;;;2.58;0.68;;;;;;;;;;5085996;28;20521;-41
2022/09/27 11:22:21;;;;;;;1.63;0.70;;;;;;;;;;5085956;28;20024;-41
2022/09/27 11:24:50;;;;;;;1.80;0.70;;;;;;;;;;5086077;28;20039;-41
2022/09/27 11:27:25;;;;;;;2.55;0.80;;;;;;;;;;5085822;28;20036;-41
2022/09/27 11:29:57;;;;;;;2.13;0.57;;;;;;;;;;5086129;28;20043;-41
2022/09/27 11:32:36;;;;;;;2.00;0.75;;;;;;;;;;5085811;28;20024;-41
2022/09/27 11:35:05;;;;;;;2.75;0.80;;;;;;;;;;5086274;28;20074;-41
2022/09/27 11:37:50;;;;;;;1.88;0.70;;;;;;;;;;5086170;28;20053;-41
2022/09/27 11:40:25;;;;;;;2.38;0.70;;;;;;;;;;5085712;28;20411;-41
2022/09/27 11:43:00;;;;;;;1.48;0.60;;;;;;;;;;5085655;28;20072;-41
2022/09/27 11:45:36;;;;;;;1.75;0.68;;;;;;;;;;5085963;28;20028;-41
2022/09/27 11:48:05;;;;;;;1.55;0.52;;;;;;;;;;5085958;28;20028;-41
2022/09/27 11:50:52;;;;;;;1.27;0.70;;;;;;;;;;5085553;28;20031;-41
2022/09/27 11:53:18;;;;;;;3.08;0.85;;;;;;;;;;5086039;28;20159;-41
2022/09/27 11:55:45;;;;;;;1.25;0.73;;;;;;;;;;5082735;28;20027;-41
2022/09/27 11:58:14;;;;;;;0.50;0.40;;;;;;;;;;5065129;28;20050;-41
2022/09/27 12:00:49;;;;;;;4.30;0.60;;;;;;;;;;5065039;28;20107;-41
2022/09/27 12:03:36;;;;;;;1.30;0.57;;;;;;;;;;5065520;28;20035;-41
2022/09/27 12:06:07;;;;;;;0.95;0.60;;;;;;;;;;5065170;28;20035;-41
2022/09/27 12:08:40;;;;;;;1.73;0.60;;;;;;;;;;5064912;28;20028;-41
2022/09/27 12:11:29;;;;;;;0.82;0.50;;;;;;;;;;5065034;28;20036;-41
2022/09/27 12:13:56;;;;;;;1.25;0.63;;;;;;;;;;5064898;28;20068;-41
2022/09/27 12:16:23;;;;;;;1.77;0.60;;;;;;;;;;5064782;28;20653;-42
2022/09/27 12:18:50;;;;;;;1.23;0.63;;;;;;;;;;5064722;28;20344;-41
2022/09/27 12:21:17;;;;;;;1.60;0.68;;;;;;;;;;5063729;28;20050;-41
2022/09/27 12:23:47;;;;;;;1.02;0.57;;;;;;;;;;5064826;28;20029;-41
2022/09/27 12:26:17;;;;;;;1.63;0.70;;;;;;;;;;5064860;28;20028;-41
2022/09/27 12:28:44;;;;;;;1.98;0.65;;;;;;;;;;5064331;28;20032;-41
2022/09/27 12:31:20;;;;;;;0.93;0.50;;;;;;;;;;5065213;28;20033;-41
2022/09/27 12:33:50;;;;;;;0.90;0.50;;;;;;;;;;5064591;28;20016;-41
2022/09/27 12:36:19;;;;;;;1.95;0.63;;;;;;;;;;5064543;28;20025;-41
2022/09/27 12:38:50;;;;;;;0.38;0.30;;;;;;;;;;5064494;28;20039;-41
2022/09/27 12:41:18;;;;;;;0.85;0.40;;;;;;;;;;5064555;28;20023;-41
2022/09/27 12:43:45;;;;;;;0.70;0.40;;;;;;;;;;5064546;28;20017;-41
2022/09/27 12:46:22;;;;;;;0.98;0.40;;;;;;;;;;5064819;28;20025;-41
2022/09/27 12:49:03;;;;;;;0.20;0.20;;;;;;;;;;5064105;28;20496;-42
2022/09/27 12:51:35;;;;;;;0.75;0.50;;;;;;;;;;5065167;28;20070;-41
2022/09/27 12:54:20;;;;;;;0.40;0.40;;;;;;;;;;5065287;28;20508;-41
2022/09/27 12:57:07;;;;;;;0.38;0.30;;;;;;;;;;5064507;28;20051;-41
2022/09/27 12:59:36;;;;;;;0.30;0.30;;;;;;;;;;5033605;28;20043;-41
2022/09/27 13:02:21;;;;;;;1.10;0.60;;;;;;;;;;5064589;28;20033;-41
2022/09/27 13:05:05;;;;;;;0.40;0.40;;;;;;;;;;5064393;28;20448;-41
2022/09/27 13:07:58;;;;;;;0.40;0.40;;;;;;;;;;5065054;28;20109;-41
2022/09/27 13:10:39;;;;;;;1.48;0.50;;;;;;;;;;5064540;28;20488;-41
2022/09/27 13:13:10;;;;;;;1.23;0.32;;;;;;;;;;5064724;28;20503;-42
2022/09/27 13:15:38;;;;;;;0.50;0.40;;;;;;;;;;5064363;28;20220;-41
2022/09/27 13:18:06;;;;;;;1.20;0.60;;;;;;;;;;5064505;28;20074;-42
2022/09/27 13:20:35;;;;;;;0.60;0.40;;;;;;;;;;5064369;28;20103;-41
2022/09/27 13:23:03;;;;;;;0.75;0.50;;;;;;;;;;5064838;28;20063;-41
2022/09/27 13:25:50;;;;;;;0.60;0.40;;;;;;;;;;5064690;28;20020;-41
2022/09/27 13:28:31;;;;;;;1.10;0.50;;;;;;;;;;5064589;28;20086;-41
2022/09/27 13:31:01;;;;;;;2.13;0.40;;;;;;;;;;5064699;28;20025;-42
2022/09/27 13:33:33;;;;;;;1.85;0.60;;;;;;;;;;5064699;28;20032;-41
2022/09/27 13:36:18;;;;;;;0.98;0.50;;;;;;;;;;5064921;28;20098;-41
2022/09/27 13:39:12;;;;;;;2.92;0.50;;;;;;;;;;5063920;28;20028;-41
2022/09/27 13:41:47;;;;;;;1.30;0.50;;;;;;;;;;5062148;28;20089;-41
2022/09/27 13:44:21;;;;;;;0.50;0.40;;;;;;;;;;5064170;28;20016;-42
2022/09/27 13:46:52;;;;;;;1.00;0.60;;;;;;;;;;5063603;28;20047;-41
2022/09/27 13:49:38;;;;;;;1.27;0.40;;;;;;;;;;5066384;28;20025;-42
2022/09/27 13:52:14;;;;;;;0.57;0.35;;;;;;;;;;5088652;28;20036;-42
2022/09/27 13:54:49;;;;;;;1.50;0.52;;;;;;;;;;5085841;28;20487;-41
2022/09/27 13:57:34;;;;;;;1.85;0.40;;;;;;;;;;5067699;28;20100;-41
2022/09/27 14:00:04;;;;;;;2.03;0.57;;;;;;;;;;5067790;28;20024;-42
2022/09/27 14:02:31;;;;;;;1.20;0.47;;;;;;;;;;5067838;28;20499;-41
2022/09/27 14:04:59;;;;;;;0.63;0.40;;;;;;;;;;5067517;28;20017;-41
2022/09/27 14:07:38;;;;;;;0.95;0.50;;;;;;;;;;5067750;28;20145;-41
2022/09/27 14:10:04;;;;;;;0.70;0.32;;;;;;;;;;5067796;28;20079;-41
2022/09/27 14:12:33;;;;;;;0.82;0.50;;;;;;;;;;5068086;28;20407;-41
2022/09/27 14:14:59;;;;;;;0.63;0.50;;;;;;;;;;5067066;28;20024;-42
2022/09/27 14:17:25;;;;;;;0.30;0.30;;;;;;;;;;5067266;28;20059;-41
2022/09/27 14:19:53;;;;;;;1.38;0.50;;;;;;;;;;5066891;28;20169;-42
2022/09/27 14:22:21;;;;;;;1.85;0.70;;;;;;;;;;5067394;28;20033;-42
2022/09/27 14:24:51;;;;;;;1.58;0.60;;;;;;;;;;5065376;28;20032;-41
2022/09/27 14:27:17;;;;;;;0.90;0.60;;;;;;;;;;5067152;28;20039;-42
2022/09/27 14:29:45;;;;;;;1.48;0.50;;;;;;;;;;5066464;28;20024;-41
2022/09/27 14:32:19;;;;;;;2.30;0.85;;;;;;;;;;5066880;28;20020;-41
2022/09/27 14:34:45;;;;;;;1.30;0.70;;;;;;;;;;5066652;28;20027;-42
2022/09/27 14:37:24;;;;;;;2.33;0.70;;;;;;;;;;5066932;28;20091;-41
2022/09/27 14:40:13;;;;;;;1.95;0.75;;;;;;;;;;5066439;28;20785;-41
2022/09/27 14:42:39;;;;;;;1.42;0.60;;;;;;;;;;5066139;28;20033;-41
2022/09/27 14:45:14;;;;;;;0.90;0.60;;;;;;;;;;5066723;28;20027;-41
2022/09/27 14:47:45;;;;;;;0.98;0.38;;;;;;;;;;5066697;28;20063;-41
2022/09/27 14:50:26;;;;;;;0.70;0.50;;;;;;;;;;5066574;28;20029;-41
2022/09/27 14:52:55;;;;;;;1.75;0.65;;;;;;;;;;5066560;28;20021;-41
2022/09/27 14:55:23;;;;;;;1.20;0.52;;;;;;;;;;5066233;28;20031;-41
2022/09/27 14:57:54;;;;;;;0.85;0.40;;;;;;;;;;5066220;28;20033;-41
2022/09/27 15:00:25;;;;;;;2.17;0.60;;;;;;;;;;5065940;28;20496;-41
2022/09/27 15:02:54;;;;;;;1.35;0.50;;;;;;;;;;5066167;28;20948;-41
2022/09/27 15:05:22;;;;;;;0.60;0.47;;;;;;;;;;5066226;28;20028;-41
2022/09/27 15:07:50;;;;;;;1.13;0.40;;;;;;;;;;5066405;28;20051;-41
2022/09/27 15:10:18;;;;;;;2.25;0.63;;;;;;;;;;5066158;28;20021;-41